Time;durP1;ratioP1;P1;durP2;ratioP2;P2;SDS_P1;SDS_P2;PMS_P1;PMS_P2;Temp;Humidity;BMP_temperature;BMP_pressure;BME280_temperature;BME280_humidity;BME280_pressure;Samples;Min_cycle;Max_cycle;Signal;HPM_P1;HPM_P2
2023/04/26 00:01:43;;;;;;;5.18;4.10;;;9.70;99.90;;;;;;4978178;28;20031;-94
2023/04/26 00:04:08;;;;;;;5.40;3.67;;;9.70;99.90;;;;;;4979912;28;20023;-93
2023/04/26 00:06:36;;;;;;;5.18;3.63;;;9.70;99.90;;;;;;4979955;28;20023;-95
2023/04/26 00:09:01;;;;;;;4.88;3.95;;;9.70;99.90;;;;;;4979870;28;20475;-94
2023/04/26 00:11:27;;;;;;;5.97;3.85;;;9.60;99.90;;;;;;4979958;28;20025;-94
2023/04/26 00:13:53;;;;;;;5.90;4.03;;;9.50;99.90;;;;;;4979739;28;20388;-94
2023/04/26 00:16:19;;;;;;;5.32;4.07;;;9.50;99.90;;;;;;4980002;28;20035;-94
2023/04/26 00:18:45;;;;;;;4.80;3.88;;;9.30;99.90;;;;;;4979268;28;20046;-95
2023/04/26 00:21:11;;;;;;;5.57;3.90;;;9.10;99.90;;;;;;4979339;28;20559;-94
2023/04/26 00:23:37;;;;;;;5.07;3.60;;;8.90;99.90;;;;;;4977954;28;20037;-94
2023/04/26 00:26:03;;;;;;;5.07;3.67;;;8.90;99.90;;;;;;4980267;28;20054;-94
2023/04/26 00:28:30;;;;;;;5.00;3.75;;;9.00;99.90;;;;;;4978984;28;20483;-93
2023/04/26 00:30:56;;;;;;;6.13;4.38;;;9.20;99.90;;;;;;4978435;28;20027;-94
2023/04/26 00:33:25;;;;;;;5.22;3.80;;;9.40;99.90;;;;;;4979121;28;20027;-93
2023/04/26 00:35:51;;;;;;;5.88;4.22;;;9.10;99.90;;;;;;4977441;28;20039;-94
2023/04/26 00:38:17;;;;;;;7.45;3.80;;;8.90;99.90;;;;;;4978494;28;20089;-94
2023/04/26 00:40:42;;;;;;;6.00;4.03;;;8.90;99.90;;;;;;4979556;28;20399;-94
2023/04/26 00:43:08;;;;;;;8.60;4.22;;;8.80;99.90;;;;;;4979519;28;20019;-93
2023/04/26 00:45:34;;;;;;;6.63;3.95;;;9.00;99.90;;;;;;4979781;28;20446;-94
2023/04/26 00:48:02;;;;;;;6.78;4.30;;;8.60;99.90;;;;;;4998193;28;20027;-94
2023/04/26 00:50:29;;;;;;;7.20;3.90;;;8.60;99.90;;;;;;4996924;28;20030;-95
2023/04/26 00:52:56;;;;;;;8.32;4.32;;;8.70;99.90;;;;;;4998303;28;20054;-93
2023/04/26 00:55:22;;;;;;;6.72;4.15;;;8.80;99.90;;;;;;4997457;28;20077;-95
2023/04/26 00:57:47;;;;;;;5.07;3.80;;;8.80;99.90;;;;;;4998265;28;20030;-94
2023/04/26 01:00:15;;;;;;;7.00;4.00;;;8.60;99.90;;;;;;4996618;28;20074;-94
2023/04/26 01:02:41;;;;;;;7.10;4.50;;;8.30;99.90;;;;;;4998629;28;20019;-94
2023/04/26 01:05:08;;;;;;;8.18;4.60;;;8.30;99.90;;;;;;4998301;28;20034;-94
2023/04/26 01:07:35;;;;;;;10.88;4.35;;;8.30;99.90;;;;;;4998150;28;20058;-93
2023/04/26 01:10:05;;;;;;;5.82;4.40;;;8.20;99.90;;;;;;4998338;28;20027;-93
2023/04/26 01:12:31;;;;;;;6.55;4.05;;;8.10;99.90;;;;;;4998197;28;20034;-94
2023/04/26 01:14:59;;;;;;;7.70;4.18;;;8.10;99.90;;;;;;4996699;28;20461;-94
2023/04/26 01:17:24;;;;;;;5.93;4.13;;;8.30;99.90;;;;;;4997685;28;20375;-93
2023/04/26 01:19:50;;;;;;;5.13;3.88;;;8.30;99.90;;;;;;4996375;28;20036;-94
2023/04/26 01:22:16;;;;;;;8.70;4.20;;;8.20;99.90;;;;;;4997724;28;20373;-94
2023/04/26 01:24:44;;;;;;;5.55;3.97;;;8.10;99.90;;;;;;4997557;28;20026;-93
2023/04/26 01:27:09;;;;;;;6.95;3.92;;;8.20;99.90;;;;;;4998261;28;20030;-93
2023/04/26 01:29:35;;;;;;;5.43;3.58;;;8.10;99.90;;;;;;4998050;28;20137;-94
2023/04/26 01:32:01;;;;;;;5.38;3.88;;;7.90;99.90;;;;;;4996620;28;20034;-93
2023/04/26 01:34:26;;;;;;;6.95;4.10;;;7.80;99.90;;;;;;4997415;28;20026;-94
2023/04/26 01:36:52;;;;;;;5.22;3.80;;;7.70;99.90;;;;;;4996132;28;20035;-94
2023/04/26 01:39:18;;;;;;;7.53;4.18;;;7.70;99.90;;;;;;4989637;28;20053;-94
2023/04/26 01:41:43;;;;;;;5.47;4.47;;;7.70;99.90;;;;;;4976687;28;20034;-93
2023/04/26 01:44:09;;;;;;;8.68;4.07;;;7.50;99.90;;;;;;4976993;28;20109;-94
2023/04/26 01:46:35;;;;;;;6.82;4.30;;;7.40;99.90;;;;;;4986935;28;20109;-92
2023/04/26 01:49:00;;;;;;;6.43;4.28;;;7.60;99.90;;;;;;4997045;28;20050;-92
2023/04/26 01:51:26;;;;;;;7.28;4.78;;;7.40;99.90;;;;;;4997707;28;20034;-93
2023/04/26 01:53:53;;;;;;;6.45;4.20;;;7.30;99.90;;;;;;4997201;28;20037;-93
2023/04/26 01:56:22;;;;;;;7.03;4.88;;;7.20;99.90;;;;;;4996385;28;20210;-93
2023/04/26 01:58:49;;;;;;;8.75;4.63;;;7.30;99.90;;;;;;4996269;28;20038;-94
2023/04/26 02:01:15;;;;;;;5.72;4.47;;;7.50;99.90;;;;;;4996132;28;20014;-94
2023/04/26 02:03:40;;;;;;;6.60;4.60;;;7.70;99.90;;;;;;4997092;28;20395;-94
2023/04/26 02:06:06;;;;;;;7.50;4.68;;;8.20;99.90;;;;;;4997461;28;20026;-94
2023/04/26 02:08:32;;;;;;;7.85;4.60;;;7.90;99.90;;;;;;4995781;28;20625;-94
2023/04/26 02:10:58;;;;;;;7.93;4.50;;;7.90;99.90;;;;;;4997211;28;20018;-95
2023/04/26 02:13:24;;;;;;;6.28;4.47;;;7.70;99.90;;;;;;4996730;28;20367;-94
2023/04/26 02:15:50;;;;;;;7.30;4.50;;;7.70;99.90;;;;;;4995850;28;20035;-94
2023/04/26 02:18:16;;;;;;;6.10;4.63;;;7.70;99.90;;;;;;4997207;28;20022;-94
2023/04/26 02:20:43;;;;;;;9.10;4.97;;;7.80;99.90;;;;;;4997343;28;20491;-94
2023/04/26 02:23:09;;;;;;;7.32;4.95;;;7.50;99.90;;;;;;4996501;28;20577;-94
2023/04/26 02:25:36;;;;;;;6.88;4.90;;;7.60;99.90;;;;;;4997130;28;20042;-94
2023/04/26 02:28:02;;;;;;;6.22;4.40;;;7.70;99.90;;;;;;4996512;28;20073;-93
2023/04/26 02:30:27;;;;;;;8.75;4.68;;;7.50;99.90;;;;;;4996938;28;20062;-94
2023/04/26 02:32:54;;;;;;;8.98;4.10;;;7.50;99.90;;;;;;4996912;28;20033;-94
2023/04/26 02:35:20;;;;;;;9.25;4.50;;;7.30;99.90;;;;;;4996647;28;20041;-94
2023/04/26 02:37:48;;;;;;;8.27;4.63;;;7.20;99.90;;;;;;4996561;28;20031;-94
2023/04/26 02:40:14;;;;;;;5.68;4.22;;;7.10;99.90;;;;;;4980791;28;20054;-94
2023/04/26 02:42:40;;;;;;;7.65;4.40;;;7.30;99.90;;;;;;4976044;28;20511;-94
2023/04/26 02:45:07;;;;;;;5.72;4.18;;;7.30;99.90;;;;;;4973987;28;20058;-94
2023/04/26 02:47:35;;;;;;;6.97;4.90;;;7.10;99.90;;;;;;4990777;28;20536;-94
2023/04/26 02:50:02;;;;;;;5.15;4.05;;;6.90;99.90;;;;;;4994063;28;20026;-94
2023/04/26 02:52:28;;;;;;;7.65;4.30;;;7.10;99.90;;;;;;4992644;28;20042;-94
2023/04/26 02:54:54;;;;;;;8.27;4.60;;;7.00;99.90;;;;;;4994049;28;20030;-94
2023/04/26 02:57:19;;;;;;;7.32;4.38;;;6.90;99.90;;;;;;4993801;28;20045;-94
2023/04/26 02:59:45;;;;;;;6.10;4.45;;;7.00;99.90;;;;;;4993441;28;20031;-94
2023/04/26 03:02:11;;;;;;;7.03;4.55;;;7.40;99.90;;;;;;4993470;28;20449;-94
2023/04/26 03:04:37;;;;;;;5.63;4.75;;;7.20;99.90;;;;;;4994107;28;20062;-94
2023/04/26 03:07:03;;;;;;;9.35;4.93;;;7.00;99.90;;;;;;4993632;28;20028;-94
2023/04/26 03:09:29;;;;;;;6.28;4.68;;;7.10;99.90;;;;;;4992707;28;20053;-94
2023/04/26 03:11:55;;;;;;;6.50;5.07;;;7.10;99.90;;;;;;4993518;28;20073;-94
2023/04/26 03:14:21;;;;;;;5.70;5.05;;;7.00;99.90;;;;;;4993327;28;20030;-93
2023/04/26 03:16:47;;;;;;;7.88;4.55;;;7.10;99.90;;;;;;4992028;28;20038;-94
2023/04/26 03:19:13;;;;;;;6.57;4.45;;;7.20;99.90;;;;;;4994593;28;20039;-95
2023/04/26 03:21:39;;;;;;;6.00;4.18;;;7.30;99.90;;;;;;4997493;28;20030;-94
2023/04/26 03:24:05;;;;;;;8.30;5.15;;;7.20;99.90;;;;;;4996186;28;20018;-93
2023/04/26 03:26:31;;;;;;;5.07;4.55;;;7.20;99.90;;;;;;4996543;28;20026;-95
2023/04/26 03:28:56;;;;;;;7.40;5.38;;;7.10;99.90;;;;;;4997597;28;20035;-94
2023/04/26 03:31:22;;;;;;;6.78;4.80;;;7.20;99.90;;;;;;4996972;28;20027;-94
2023/04/26 03:33:48;;;;;;;7.28;4.70;;;7.00;99.90;;;;;;4997522;28;20018;-94
2023/04/26 03:36:14;;;;;;;7.30;5.10;;;7.10;99.90;;;;;;4997079;28;20026;-94
2023/04/26 03:38:41;;;;;;;7.40;4.25;;;7.00;99.90;;;;;;4994303;28;20165;-93
2023/04/26 03:41:07;;;;;;;8.00;5.10;;;7.00;99.90;;;;;;4976893;28;20023;-94
2023/04/26 03:43:33;;;;;;;7.28;4.70;;;6.90;99.90;;;;;;4977674;28;20058;-94
2023/04/26 03:45:59;;;;;;;5.65;4.50;;;6.80;99.90;;;;;;4973197;28;20023;-94
2023/04/26 03:48:26;;;;;;;6.70;4.45;;;7.10;99.90;;;;;;4958565;29;20077;-93
2023/04/26 03:50:52;;;;;;;8.50;4.80;;;7.00;99.90;;;;;;4957109;29;20512;-94
2023/04/26 03:53:17;;;;;;;8.65;4.90;;;7.00;99.90;;;;;;4956838;29;20031;-94
2023/04/26 03:55:43;;;;;;;7.32;4.45;;;7.20;99.90;;;;;;4957811;29;20036;-94
2023/04/26 03:58:09;;;;;;;8.48;4.82;;;6.80;99.90;;;;;;4958438;29;20034;-94
2023/04/26 04:00:39;;;;;;;9.52;5.07;;;6.90;99.90;;;;;;4957331;29;20027;-94
2023/04/26 04:03:06;;;;;;;6.97;5.03;;;7.00;99.90;;;;;;4957998;28;20027;-94
2023/04/26 04:05:31;;;;;;;8.55;4.88;;;7.00;99.90;;;;;;4958116;28;20030;-94
2023/04/26 04:07:57;;;;;;;10.20;5.13;;;7.00;99.90;;;;;;4957704;29;20031;-94
2023/04/26 04:10:23;;;;;;;8.18;5.10;;;7.10;99.90;;;;;;4957810;29;20055;-94
2023/04/26 04:12:52;;;;;;;6.35;5.03;;;7.30;99.90;;;;;;4956847;29;20028;-94
2023/04/26 04:15:19;;;;;;;8.32;5.38;;;7.10;99.90;;;;;;4957046;29;20122;-94
2023/04/26 04:17:45;;;;;;;9.48;5.72;;;7.00;99.90;;;;;;4957840;28;20949;-95
2023/04/26 04:20:12;;;;;;;8.20;5.20;;;7.00;99.90;;;;;;4958131;29;20027;-94
2023/04/26 04:22:38;;;;;;;6.65;5.15;;;6.90;99.90;;;;;;4957299;28;20039;-94
2023/04/26 04:25:09;;;;;;;8.23;5.47;;;6.90;99.90;;;;;;4957868;28;20038;-94
2023/04/26 04:27:36;;;;;;;8.02;4.95;;;6.80;99.90;;;;;;4956232;29;20035;-95
2023/04/26 04:30:06;;;;;;;8.00;5.40;;;6.80;99.90;;;;;;4955350;28;20033;-95
2023/04/26 04:32:32;;;;;;;6.47;4.88;;;6.60;99.90;;;;;;4956774;28;20031;-94
2023/04/26 04:34:58;;;;;;;7.32;5.53;;;6.60;99.90;;;;;;4957568;28;20030;-94
2023/04/26 04:37:24;;;;;;;6.78;5.03;;;6.40;99.90;;;;;;4957297;29;20049;-94
2023/04/26 04:39:51;;;;;;;9.40;5.63;;;6.60;99.90;;;;;;4968772;28;20065;-94
2023/04/26 04:42:17;;;;;;;9.07;5.10;;;6.50;99.90;;;;;;4975043;28;20026;-94
2023/04/26 04:44:44;;;;;;;6.78;5.15;;;6.80;99.90;;;;;;4976633;28;20026;-95
2023/04/26 04:47:10;;;;;;;6.10;5.28;;;6.50;99.90;;;;;;4990310;28;20030;-95
2023/04/26 04:49:36;;;;;;;8.40;5.55;;;6.70;99.90;;;;;;4995726;28;20046;-95
2023/04/26 04:52:02;;;;;;;7.97;5.50;;;7.00;99.90;;;;;;4996070;28;20029;-94
2023/04/26 04:54:27;;;;;;;6.55;5.53;;;7.00;99.90;;;;;;4995786;28;20034;-94
2023/04/26 04:56:53;;;;;;;5.93;5.07;;;7.00;99.90;;;;;;4995236;28;20038;-95
2023/04/26 04:59:19;;;;;;;6.97;4.93;;;7.20;99.90;;;;;;4995922;28;20026;-94
2023/04/26 05:01:44;;;;;;;9.07;5.50;;;7.40;99.90;;;;;;4995619;28;20026;-95
2023/04/26 05:04:10;;;;;;;7.13;5.40;;;7.10;99.90;;;;;;4995961;28;20022;-95
2023/04/26 05:06:36;;;;;;;6.63;5.15;;;7.20;99.90;;;;;;4995485;28;20038;-94
2023/04/26 05:09:01;;;;;;;8.90;6.30;;;7.10;99.90;;;;;;4994683;28;20027;-94
2023/04/26 05:11:27;;;;;;;11.60;5.82;;;7.10;99.90;;;;;;4995284;28;20034;-94
2023/04/26 05:13:52;;;;;;;9.60;5.45;;;7.20;99.90;;;;;;4994743;28;20033;-94
2023/04/26 05:16:18;;;;;;;11.70;6.28;;;7.20;99.90;;;;;;4995338;28;20038;-95
2023/04/26 05:18:57;;;;;;;6.97;5.50;;;7.20;99.90;;;;;;4995984;28;20046;-95
2023/04/26 05:21:23;;;;;;;7.78;5.88;;;7.20;99.90;;;;;;4994960;28;20100;-94
2023/04/26 05:23:48;;;;;;;8.55;5.47;;;7.30;99.90;;;;;;4995380;28;20026;-95
2023/04/26 05:26:17;;;;;;;9.77;5.82;;;7.20;99.90;;;;;;4994905;28;20030;-95
2023/04/26 05:28:42;;;;;;;9.13;5.72;;;7.20;99.90;;;;;;4995293;28;20018;-95
2023/04/26 05:31:10;;;;;;;13.43;6.28;;;7.30;99.90;;;;;;4994094;28;20030;-94
2023/04/26 05:33:36;;;;;;;9.75;6.15;;;7.20;99.90;;;;;;4995568;28;20490;-95
2023/04/26 05:36:03;;;;;;;9.68;6.20;;;7.30;99.90;;;;;;4994878;28;20117;-94
2023/04/26 05:38:29;;;;;;;10.15;6.18;;;7.60;99.90;;;;;;4994125;28;20056;-94
2023/04/26 05:40:55;;;;;;;12.77;6.90;;;7.90;99.90;;;;;;4975481;28;20043;-94
2023/04/26 05:43:20;;;;;;;12.65;6.45;;;7.50;99.90;;;;;;4975231;28;20030;-95
2023/04/26 05:45:51;;;;;;;12.43;5.97;;;7.50;99.90;;;;;;4978193;28;20018;-94
2023/04/26 05:48:17;;;;;;;10.85;6.40;;;7.90;99.90;;;;;;4995100;28;20057;-82
2023/04/26 05:50:42;;;;;;;12.52;6.28;;;7.60;99.90;;;;;;4993669;28;20058;-83
2023/04/26 05:53:08;;;;;;;13.80;7.28;;;8.10;99.90;;;;;;4993952;28;20025;-82
2023/04/26 05:55:33;;;;;;;12.75;7.05;;;8.00;99.90;;;;;;4993020;28;20495;-82
2023/04/26 05:57:59;;;;;;;13.43;6.75;;;8.10;99.90;;;;;;4993588;28;20026;-82
2023/04/26 06:00:24;;;;;;;10.35;6.65;;;8.20;99.90;;;;;;4993478;28;20026;-82
2023/04/26 06:02:50;;;;;;;12.45;6.93;;;8.20;99.90;;;;;;4993782;28;20483;-82
2023/04/26 06:05:16;;;;;;;13.88;6.68;;;8.20;99.90;;;;;;4993424;28;20026;-82
2023/04/26 06:07:42;;;;;;;11.57;6.47;;;8.10;99.90;;;;;;4993061;28;20026;-82
2023/04/26 06:10:09;;;;;;;10.27;6.22;;;8.10;99.90;;;;;;4993415;28;20093;-82
2023/04/26 06:12:35;;;;;;;9.77;6.63;;;8.00;99.90;;;;;;4993158;28;20049;-82
2023/04/26 06:15:00;;;;;;;11.02;6.38;;;8.00;99.90;;;;;;4994038;28;20081;-82
2023/04/26 06:17:26;;;;;;;11.05;6.38;;;8.20;99.90;;;;;;4993163;28;20112;-81
2023/04/26 06:19:51;;;;;;;16.40;7.13;;;8.20;99.90;;;;;;4993447;28;20026;-82
2023/04/26 06:22:17;;;;;;;8.73;6.22;;;8.30;99.90;;;;;;4994008;28;20066;-82
2023/04/26 06:24:43;;;;;;;8.90;6.00;;;8.30;99.90;;;;;;4992634;28;20113;-82
2023/04/26 06:27:08;;;;;;;9.48;6.10;;;8.30;99.90;;;;;;4993491;28;20105;-82
2023/04/26 06:29:34;;;;;;;11.98;6.32;;;8.40;99.90;;;;;;4993161;28;20030;-82
2023/04/26 06:31:59;;;;;;;11.50;6.72;;;8.60;99.90;;;;;;4993010;28;20089;-82
2023/04/26 06:34:26;;;;;;;8.95;6.07;;;8.90;99.90;;;;;;4993080;28;20030;-82
2023/04/26 06:36:52;;;;;;;11.93;6.63;;;8.80;99.90;;;;;;4993577;28;20039;-82
2023/04/26 06:39:17;;;;;;;9.63;6.03;;;9.10;99.90;;;;;;4990587;28;20046;-85
2023/04/26 06:41:43;;;;;;;9.60;6.57;;;9.10;99.90;;;;;;4974916;28;20041;-86
2023/04/26 06:44:08;;;;;;;10.77;6.57;;;9.20;99.90;;;;;;4973440;28;20387;-81
2023/04/26 06:46:34;;;;;;;10.80;6.80;;;9.40;99.90;;;;;;4982998;28;20154;-81
2023/04/26 06:49:00;;;;;;;11.20;6.63;;;9.40;99.90;;;;;;4992868;28;20037;-81
2023/04/26 06:51:28;;;;;;;10.73;6.65;;;9.70;99.90;;;;;;4992847;28;20084;-81
2023/04/26 06:53:54;;;;;;;10.48;7.07;;;9.70;99.90;;;;;;4991662;28;20509;-82
2023/04/26 06:56:20;;;;;;;13.18;7.22;;;9.90;99.90;;;;;;4991844;28;20402;-81
2023/04/26 06:59:03;;;;;;;8.07;6.68;;;10.00;99.90;;;;;;4992891;28;20030;-81
2023/04/26 07:01:32;;;;;;;11.93;7.05;;;10.10;99.90;;;;;;4992793;28;20386;-81
2023/04/26 07:04:02;;;;;;;9.68;7.20;;;10.10;99.90;;;;;;4992667;28;20482;-82
2023/04/26 07:06:30;;;;;;;9.18;6.72;;;10.10;99.90;;;;;;4993022;28;20077;-82
2023/04/26 07:08:57;;;;;;;10.63;7.05;;;10.30;99.90;;;;;;4992036;28;20077;-81
2023/04/26 07:11:23;;;;;;;11.27;6.78;;;10.40;99.90;;;;;;4993039;28;20382;-82
2023/04/26 07:13:49;;;;;;;10.38;7.05;;;10.40;99.90;;;;;;4992446;28;20034;-81
2023/04/26 07:16:15;;;;;;;8.80;6.90;;;10.30;99.90;;;;;;4992604;28;20055;-81
2023/04/26 07:18:41;;;;;;;10.40;7.57;;;10.30;99.90;;;;;;4992584;28;20498;-82
2023/04/26 07:21:07;;;;;;;11.57;7.57;;;10.20;99.90;;;;;;4992475;28;20034;-82
2023/04/26 07:23:33;;;;;;;10.55;7.28;;;10.30;99.90;;;;;;4992087;28;20030;-82
2023/04/26 07:26:00;;;;;;;10.70;7.47;;;10.40;99.90;;;;;;4992471;28;20030;-81
2023/04/26 07:28:26;;;;;;;13.15;8.75;;;10.60;99.90;;;;;;4992421;28;20030;-81
2023/04/26 07:30:52;;;;;;;13.60;9.38;;;10.50;99.90;;;;;;4992514;28;20502;-81
2023/04/26 07:33:18;;;;;;;11.95;8.57;;;10.60;99.90;;;;;;4992265;28;20038;-81
2023/04/26 07:35:43;;;;;;;11.82;8.38;;;10.60;99.90;;;;;;4992744;28;20061;-81
2023/04/26 07:38:09;;;;;;;11.57;7.60;;;10.70;99.90;;;;;;4992122;28;20081;-82
2023/04/26 07:40:35;;;;;;;10.80;8.20;;;10.70;99.90;;;;;;4974327;28;20043;-82
2023/04/26 07:43:01;;;;;;;10.88;7.45;;;10.70;99.90;;;;;;4973643;28;20054;-82
2023/04/26 07:45:26;;;;;;;12.63;7.70;;;10.70;99.90;;;;;;4972946;28;20061;-81
2023/04/26 07:47:53;;;;;;;10.98;6.90;;;10.80;99.90;;;;;;4992092;28;20031;-81
2023/04/26 07:50:19;;;;;;;10.07;7.07;;;10.90;99.90;;;;;;4992755;28;20085;-82
2023/04/26 07:52:45;;;;;;;10.77;6.97;;;10.90;99.90;;;;;;4990260;28;20173;-82
2023/04/26 07:55:10;;;;;;;9.65;6.70;;;11.00;99.90;;;;;;4992161;28;20474;-82
2023/04/26 07:57:36;;;;;;;9.77;7.05;;;11.20;99.90;;;;;;4992296;28;20445;-82
2023/04/26 08:00:06;;;;;;;8.27;6.82;;;11.30;99.90;;;;;;4992650;28;20602;-81
2023/04/26 08:02:32;;;;;;;9.63;6.85;;;11.40;99.90;;;;;;4992261;28;20046;-82
2023/04/26 08:04:57;;;;;;;9.60;7.13;;;11.50;99.90;;;;;;4992772;28;20112;-81
2023/04/26 08:07:23;;;;;;;9.07;6.63;;;11.50;99.90;;;;;;4995230;28;20165;-82
2023/04/26 08:09:49;;;;;;;9.68;7.07;;;11.60;99.90;;;;;;4995675;28;20031;-81
2023/04/26 08:12:15;;;;;;;7.93;6.05;;;11.60;99.90;;;;;;4995911;28;20128;-82
2023/04/26 08:14:40;;;;;;;8.45;6.72;;;11.70;99.90;;;;;;4995934;28;20594;-82
2023/04/26 08:17:09;;;;;;;9.20;6.32;;;11.80;99.90;;;;;;4995373;28;20070;-82
2023/04/26 08:19:35;;;;;;;8.07;6.45;;;11.90;99.90;;;;;;4995308;28;20629;-82
2023/04/26 08:22:00;;;;;;;9.80;6.22;;;12.00;99.90;;;;;;4995185;28;20105;-82
2023/04/26 08:24:26;;;;;;;10.38;5.80;;;12.10;99.90;;;;;;4995493;28;20030;-82
2023/04/26 08:26:52;;;;;;;9.85;6.38;;;12.20;99.90;;;;;;4995370;28;20058;-82
2023/04/26 08:29:18;;;;;;;9.85;5.95;;;12.00;99.90;;;;;;4995371;28;20034;-81
2023/04/26 08:31:43;;;;;;;9.05;5.68;;;12.10;99.90;;;;;;4995226;28;20030;-81
2023/04/26 08:34:10;;;;;;;6.70;5.13;;;12.20;99.90;;;;;;4995484;28;20475;-82
2023/04/26 08:36:36;;;;;;;7.05;5.22;;;12.30;99.90;;;;;;4994615;28;20109;-82
2023/04/26 08:39:03;;;;;;;6.63;5.75;;;12.40;99.90;;;;;;4989374;28;20108;-82
2023/04/26 08:41:32;;;;;;;6.95;5.30;;;12.50;99.90;;;;;;4976089;28;20027;-82
2023/04/26 08:44:00;;;;;;;8.68;6.20;;;12.40;99.90;;;;;;4976265;28;20018;-81
2023/04/26 08:46:27;;;;;;;7.53;6.00;;;12.50;99.90;;;;;;4983053;28;20031;-82
2023/04/26 08:49:04;;;;;;;10.38;5.85;;;12.40;99.90;;;;;;4994509;28;20105;-81
2023/04/26 08:51:32;;;;;;;6.00;5.40;;;12.60;99.90;;;;;;4994876;28;20027;-82
2023/04/26 08:53:58;;;;;;;9.70;5.70;;;12.70;99.90;;;;;;4994739;28;20038;-82
2023/04/26 08:56:25;;;;;;;7.80;5.72;;;12.90;99.90;;;;;;4994729;28;20042;-81
2023/04/26 08:58:52;;;;;;;7.70;5.55;;;12.90;99.90;;;;;;4995131;28;20105;-82
2023/04/26 09:01:20;;;;;;;8.80;5.97;;;12.90;99.90;;;;;;4994587;28;20494;-82
2023/04/26 09:03:46;;;;;;;6.05;5.22;;;13.10;99.90;;;;;;4995005;28;20494;-81
2023/04/26 09:06:13;;;;;;;5.90;5.22;;;13.10;99.90;;;;;;4994575;28;20038;-81
2023/04/26 09:08:40;;;;;;;5.95;4.97;;;13.10;99.90;;;;;;4994890;28;20027;-81
2023/04/26 09:11:06;;;;;;;6.72;4.70;;;13.00;99.90;;;;;;4994556;28;20418;-81
2023/04/26 09:13:31;;;;;;;8.13;4.75;;;13.10;99.90;;;;;;4994435;28;20030;-81
2023/04/26 09:15:57;;;;;;;8.85;4.93;;;13.20;99.90;;;;;;4994573;28;20064;-81
2023/04/26 09:18:23;;;;;;;7.00;4.80;;;13.20;99.90;;;;;;4994232;28;20035;-82
2023/04/26 09:21:05;;;;;;;6.13;4.07;;;13.40;99.90;;;;;;4994295;28;20058;-82
2023/04/26 09:23:31;;;;;;;6.93;4.43;;;13.40;99.90;;;;;;4994273;28;20019;-82
2023/04/26 09:26:17;;;;;;;5.20;4.10;;;13.40;99.90;;;;;;4994136;28;20038;-82
2023/04/26 09:28:45;;;;;;;5.50;4.10;;;13.60;99.90;;;;;;4994151;28;20478;-81
2023/04/26 09:31:11;;;;;;;6.68;4.57;;;13.80;99.90;;;;;;4994531;28;20057;-81
2023/04/26 09:33:59;;;;;;;5.35;4.13;;;13.80;99.90;;;;;;4993450;28;20027;-81
2023/04/26 09:36:25;;;;;;;6.05;3.92;;;13.80;99.90;;;;;;4993912;28;20030;-82
2023/04/26 09:38:50;;;;;;;6.65;4.07;;;13.80;99.90;;;;;;4989821;28;20041;-82
2023/04/26 09:41:16;;;;;;;6.95;3.72;;;13.90;99.90;;;;;;4974480;28;20067;-82
2023/04/26 09:43:42;;;;;;;5.03;3.80;;;14.00;99.90;;;;;;4974347;28;20035;-82
2023/04/26 09:46:07;;;;;;;6.47;4.30;;;14.00;99.90;;;;;;4979449;28;20019;-82
2023/04/26 09:48:34;;;;;;;5.18;3.53;;;14.10;99.90;;;;;;4993802;28;20030;-82
2023/04/26 09:51:02;;;;;;;6.53;3.28;;;14.10;99.90;;;;;;4993722;28;20018;-82
2023/04/26 09:53:48;;;;;;;5.93;3.05;;;14.20;99.90;;;;;;4993699;28;20041;-81
2023/04/26 09:56:18;;;;;;;4.40;2.60;;;14.20;99.90;;;;;;4993507;28;20105;-82
2023/04/26 09:58:47;;;;;;;6.97;3.05;;;14.40;99.90;;;;;;4994078;28;20611;-81
2023/04/26 10:01:18;;;;;;;6.38;3.67;;;14.60;99.90;;;;;;4993186;28;20107;-80
2023/04/26 10:03:45;;;;;;;4.03;2.90;;;14.70;99.90;;;;;;4993702;28;20413;-82
2023/04/26 10:06:14;;;;;;;4.07;2.47;;;14.50;99.90;;;;;;4993583;28;20034;-81
2023/04/26 10:08:40;;;;;;;4.47;2.53;;;14.60;99.90;;;;;;4994084;28;20501;-82
2023/04/26 10:11:10;;;;;;;4.65;2.90;;;14.60;99.90;;;;;;4993315;28;20026;-82
2023/04/26 10:13:36;;;;;;;4.18;2.85;;;14.70;99.90;;;;;;4993273;28;20037;-82
2023/04/26 10:16:02;;;;;;;3.00;2.30;;;14.80;99.90;;;;;;4993486;28;20114;-81
2023/04/26 10:18:30;;;;;;;4.68;2.90;;;14.90;99.90;;;;;;4993227;28;20026;-81
2023/04/26 10:20:59;;;;;;;3.70;2.72;;;15.00;99.90;;;;;;4993186;28;20513;-82
2023/04/26 10:23:26;;;;;;;5.47;2.88;;;15.20;99.90;;;;;;4993176;28;20466;-82
2023/04/26 10:25:52;;;;;;;5.28;2.40;;;15.30;99.90;;;;;;4993058;28;20030;-82
2023/04/26 10:28:44;;;;;;;5.22;2.53;;;15.30;99.90;;;;;;4992391;28;20029;-81
2023/04/26 10:31:10;;;;;;;4.13;2.45;;;15.60;99.90;;;;;;4992655;28;20475;-81
2023/04/26 10:33:36;;;;;;;5.43;2.67;;;15.70;99.90;;;;;;4992698;28;20029;-82
2023/04/26 10:36:10;;;;;;;5.05;2.70;;;16.00;99.90;;;;;;4993047;28;20112;-81
2023/04/26 10:38:38;;;;;;;3.90;2.42;;;15.90;99.90;;;;;;4990726;28;20046;-81
2023/04/26 10:41:31;;;;;;;3.05;2.30;;;16.10;99.90;;;;;;4973869;28;20043;-82
2023/04/26 10:43:59;;;;;;;4.60;2.10;;;16.40;99.90;;;;;;4973755;28;20058;-82
2023/04/26 10:46:41;;;;;;;2.08;1.92;;;16.50;99.90;;;;;;4980470;28;20027;-81
2023/04/26 10:49:15;;;;;;;3.65;2.13;;;16.60;99.90;;;;;;4993097;28;20027;-81
2023/04/26 10:52:09;;;;;;;3.45;2.08;;;17.00;99.90;;;;;;4993249;28;20034;-81
2023/04/26 10:54:45;;;;;;;3.92;2.08;;;17.30;99.90;;;;;;4993030;28;20499;-82
2023/04/26 10:57:11;;;;;;;3.13;2.03;;;17.10;99.90;;;;;;4992601;28;20048;-82
2023/04/26 10:59:37;;;;;;;5.40;2.15;;;17.40;99.90;;;;;;4992362;28;20026;-82
2023/04/26 11:02:03;;;;;;;3.00;2.25;;;17.60;99.90;;;;;;4992747;28;20514;-82
2023/04/26 11:04:53;;;;;;;3.22;2.05;;;18.10;99.90;;;;;;4990993;28;20037;-82
2023/04/26 11:07:37;;;;;;;3.53;1.92;;;18.60;99.90;;;;;;4973217;28;20023;-82
2023/04/26 11:10:09;;;;;;;4.40;2.47;;;19.40;99.90;;;;;;4973214;28;20034;-82
2023/04/26 11:12:35;;;;;;;2.78;2.20;;;19.70;99.90;;;;;;4973479;28;20030;-82
2023/04/26 11:15:02;;;;;;;3.03;2.15;;;20.40;99.90;;;;;;4972760;28;20054;-82
2023/04/26 11:17:27;;;;;;;2.17;1.98;;;20.90;99.90;;;;;;4973540;28;20510;-81
2023/04/26 11:19:53;;;;;;;4.65;1.90;;;21.10;99.90;;;;;;4973111;28;20031;-82
2023/04/26 11:22:22;;;;;;;3.97;2.10;;;21.40;99.90;;;;;;4972966;28;20472;-82
2023/04/26 11:24:48;;;;;;;6.70;1.98;;;21.40;99.90;;;;;;4973384;28;20031;-82
2023/04/26 11:27:14;;;;;;;2.58;1.60;;;21.50;99.90;;;;;;4972975;28;20034;-82
2023/04/26 11:29:39;;;;;;;1.92;1.58;;;21.60;99.90;;;;;;4972651;28;20396;-82
2023/04/26 11:32:05;;;;;;;1.55;1.40;;;21.60;99.90;;;;;;4973095;28;20058;-82
2023/04/26 11:34:35;;;;;;;2.22;1.60;;;22.70;99.90;;;;;;4972867;28;20109;-79
2023/04/26 11:37:05;;;;;;;3.20;1.83;;;22.90;99.90;;;;;;4973052;28;20039;-82
2023/04/26 11:39:34;;;;;;;4.60;2.00;;;23.20;99.90;;;;;;4974395;28;20046;-81
2023/04/26 11:42:10;;;;;;;3.90;1.77;;;23.70;99.90;;;;;;4977362;28;20169;-82
2023/04/26 11:44:37;;;;;;;2.33;1.80;;;23.60;99.90;;;;;;4975184;28;20101;-81
2023/04/26 11:47:04;;;;;;;3.97;2.05;;;23.60;99.90;;;;;;4989104;28;20066;-79
2023/04/26 11:49:31;;;;;;;2.53;1.70;;;23.60;99.90;;;;;;4996051;28;20033;-80
2023/04/26 11:51:58;;;;;;;3.92;2.05;;;24.20;99.90;;;;;;4989689;28;20023;-80
2023/04/26 11:54:33;;;;;;;3.38;1.83;;;24.40;99.90;;;;;;4976368;28;20034;-79
2023/04/26 11:57:00;;;;;;;2.97;1.90;;;23.80;99.90;;;;;;4976225;28;20042;-79
2023/04/26 11:59:31;;;;;;;2.25;1.75;;;24.70;99.90;;;;;;4975927;28;20082;-79
2023/04/26 12:01:57;;;;;;;5.60;2.22;;;25.00;99.90;;;;;;4976348;28;20027;-79
2023/04/26 12:04:28;;;;;;;3.13;1.98;;;25.20;99.90;;;;;;4976254;28;20031;-79
2023/04/26 12:06:54;;;;;;;5.30;1.95;;;26.00;99.90;;;;;;4976128;28;20038;-79
2023/04/26 12:09:27;;;;;;;2.38;1.73;;;25.80;99.90;;;;;;4976115;28;20031;-79
2023/04/26 12:11:59;;;;;;;4.25;1.80;;;26.00;99.90;;;;;;4975983;28;20038;-80
2023/04/26 12:14:37;;;;;;;2.35;1.90;;;26.20;99.90;;;;;;4976151;28;20486;-79
2023/04/26 12:17:04;;;;;;;3.13;1.80;;;26.20;99.90;;;;;;4976826;28;20035;-79
2023/04/26 12:19:35;;;;;;;2.95;1.83;;;26.60;99.90;;;;;;4976335;28;20391;-80
2023/04/26 12:22:02;;;;;;;1.42;1.33;;;26.30;99.90;;;;;;4975659;28;20037;-79
2023/04/26 12:24:33;;;;;;;2.38;1.65;;;26.10;99.90;;;;;;4975972;28;20023;-79
2023/04/26 12:26:59;;;;;;;3.53;2.00;;;26.20;99.90;;;;;;4975728;28;20551;-79
2023/04/26 12:29:26;;;;;;;3.90;1.67;;;25.90;99.90;;;;;;4975593;28;20030;-79
2023/04/26 12:31:52;;;;;;;2.28;1.58;;;26.60;99.90;;;;;;4975623;28;20498;-79
2023/04/26 12:34:17;;;;;;;2.08;1.48;;;26.70;99.90;;;;;;4976102;28;20114;-79
2023/04/26 12:36:43;;;;;;;2.75;1.52;;;27.30;99.90;;;;;;4975691;28;20090;-80
2023/04/26 12:39:15;;;;;;;2.25;1.20;;;27.10;99.90;;;;;;4975280;28;20057;-79
2023/04/26 12:41:42;;;;;;;2.13;1.60;;;27.80;99.90;;;;;;4975844;28;20085;-79
2023/04/26 12:44:08;;;;;;;3.13;1.50;;;27.70;99.90;;;;;;4975463;28;20022;-79
2023/04/26 12:46:35;;;;;;;1.92;1.45;;;27.40;99.90;;;;;;4984035;28;20026;-79
2023/04/26 12:49:00;;;;;;;2.40;1.60;;;27.00;99.90;;;;;;4995274;28;20105;-79
2023/04/26 12:51:26;;;;;;;2.50;1.35;;;27.00;99.90;;;;;;4993948;28;20121;-79